Eldred, Minnesota
Current Conditions -  °F | °C
As of 5:54 PM on Saturday 25 Oct 2014 (Local Time) from KCKN Reporting Station
Clear Clear  
Wind Chill: 55°   Ceiling: Unl
Heat Index: 55°   Visibility: 10mi
Dew Point: 28°   Wind: 7mph
Humidity: 36%   Direction: 300°WNW
Pressure: 30.04"   Gusts: NA
Location:  47.664°N, 96.7656°W
Report Text: KCKN 252254Z AUTO 30006KT 10SM CLR 13/M02 A3004 RMK AO2
Loading
Personal Weather Stations






























Interactive Weather Map
Tropical Storm Tracking
New forecast layout! Learn more

10-Day Weather Forecast

Advertisements
Track Severe Weather on mobile